CW8593 Gava ES current weather conditions

sailwx.info

Wind from 047 at 6 knots gusting 13

Air temperature 17.8° C
Dewpoint 16.1° C

Last reported at 2014-Nov-29 02:42 UTC.
Time now 2014-Nov-29 03:43 UTC

Location: N 41°18' E 001°60'.
View on Google Maps.

See reports from other nearby stations

  
Tides and Currents Weather Stations Pressure Air Temp Water Temp Dewpoint Dewpoint Depression Visibility Wind Speed Wind Dir Waves Ship Positions
date/time (UTC)wind fromknots sea level pressurealtimeterstation pressurevisibilityair tempwater tempwave heightnotes
2014-Nov-29 02:42 047 6 gusting 13 17.8
2014-Nov-29 01:52 071 5 gusting 13 17.8
2014-Nov-29 01:22 060 5 gusting 11 17.8
2014-Nov-29 01:02 088 7 gusting 14 17.8
2014-Nov-29 00:52 149 6 gusting 17 17.8
2014-Nov-29 00:42 094 6 gusting 17 17.8
2014-Nov-29 00:32 080 8 gusting 19 18.3
2014-Nov-29 00:12 084 7 gusting 19 18.3
2014-Nov-29 00:02 085 6 gusting 14 18.3
2014-Nov-28 23:52 022 6 gusting 15 18.3
2014-Nov-28 23:42 071 5 gusting 18 18.3
2014-Nov-28 23:32 113 6 gusting 13 18.3
2014-Nov-28 23:12 055 1 gusting 10 18.3
2014-Nov-28 23:02 087 6 gusting 11 18.3
2014-Nov-28 22:52 073 6 gusting 10 18.3
2014-Nov-28 22:42 087 1 gusting 10 17.8
2014-Nov-28 22:32 078 4 gusting 10 17.8
2014-Nov-28 22:12 028 4 gusting 10 17.8
2014-Nov-28 21:52 059 2 gusting 10 17.8
2014-Nov-28 21:32 024 5 gusting 8 17.8
2014-Nov-28 21:12 049 2 gusting 8 17.8
2014-Nov-28 20:52 005 6 gusting 11 17.8
2014-Nov-28 20:22 050 1 gusting 6 17.8
2014-Nov-28 20:12 040 1 gusting 8 17.2
2014-Nov-28 19:32 034 0 gusting 4 17.2
2014-Nov-28 19:02 055 2 gusting 5 17.8
2014-Nov-28 18:32 059 2 gusting 6 17.8
2014-Nov-28 18:12 067 1 gusting 5 17.8
2014-Nov-28 18:02 053 3 gusting 8 17.8
2014-Nov-28 17:52 082 2 gusting 8 17.8
2014-Nov-28 17:22 077 4 gusting 12 18.3
2014-Nov-28 17:12 084 7 gusting 13 18.3
2014-Nov-28 17:02 085 5 gusting 11 18.3
2014-Nov-28 16:42 086 5 gusting 10 17.8
2014-Nov-28 16:32 109 4 gusting 10 17.8
2014-Nov-28 16:12 072 6 gusting 11 17.8
2014-Nov-28 15:22 079 3 gusting 7 18.3
2014-Nov-28 15:12 067 5 gusting 10 18.3
2014-Nov-28 15:02 084 3 gusting 11 18.3
2014-Nov-28 14:42 051 5 gusting 12 18.3
2014-Nov-28 14:32 067 3 gusting 10 18.3
2014-Nov-28 14:12 088 1 gusting 10 18.3
2014-Nov-28 14:02 068 4 gusting 10 18.3
2014-Nov-28 13:52 013 6 gusting 12 18.3
2014-Nov-28 13:12 090 1 gusting 7 18.3
2014-Nov-28 13:02 081 4 gusting 10 18.3
2014-Nov-28 12:42 097 6 gusting 10 18.3
2014-Nov-28 12:32 078 3 gusting 11 18.3
2014-Nov-28 12:12 106 2 gusting 10 18.3
2014-Nov-28 12:02 139 4 gusting 10 18.3
2014-Nov-28 11:22 109 4 gusting 11 18.3
2014-Nov-28 11:12 132 4 gusting 6 17.8
2014-Nov-28 11:02 132 3 gusting 10 17.8
2014-Nov-28 10:52 154 4 gusting 8 17.8
2014-Nov-28 10:32 117 6 gusting 10 17.8
2014-Nov-28 10:02 146 6 gusting 10 17.8
2014-Nov-28 09:52 136 4 gusting 10 17.8
2014-Nov-28 09:42 136 5 gusting 8 17.8
2014-Nov-28 09:32 254 0 gusting 2 17.2